Flight Track Log - Related Links

Times and Time Zones

All times are in EDT time to prevent confusion due to time zone crossing. See the UAL407 flight status page for this flight to view local times or setup timezone preferences in your user account.

Time Position Orientation Groundspeed Altitude Reporting Facility
EDT Latitude Longitude Course Direction KTS MPH feet Rate Location/Type
Fri 06:25:48 PM 42.7256 -73.8053 324° Northwest 163 188 1,400  Level Boston Center
Fri 06:26:49 PM 42.6939 -73.8439 222° Southwest 208 239 3,100 2,356 Climbing Boston Center
Fri 06:28:00 PM 42.8033 -74.1683 284° West  Level FlightAware
Fri 06:28:03 PM 42.7367 -73.9328 303° West 257 296 6,700  Level Boston Center
Fri 06:29:00 PM 42.8261 -74.2932 284° West  Level FlightAware
Fri 06:29:03 PM 42.8047 -73.9825 332° Northwest 257 296 10,400  Level Boston Center
Fri 06:30:00 PM 42.8476 -74.4186 283° West  Level FlightAware
Fri 06:30:03 PM 42.8728 -74.0267 335° Northwest 262 302 13,900  Level Boston Center
Fri 06:31:00 PM 42.8733 -74.5399 324° Northwest  Level FlightAware
Fri 06:31:03 PM 42.9514 -74.0825 333° Northwest 292 336 15,800  Level Boston Center
Fri 06:32:03 PM 42.9936 -74.1831 300° West 307 353 18,200 2,000 Climbing Boston Center
Fri 06:34:03 PM 43.0206 -74.4394 278° West 329 379 21,800 1,906 Climbing Boston Center
Fri 06:35:15 PM 43.0286 -74.5703 275° West 347 399 24,300 2,000 Climbing Boston Center
Fri 06:36:15 PM 43.0422 -74.7356 276° West 364 419 26,200 1,600 Climbing Boston Center
Fri 06:37:15 PM 43.0558 -74.8811 277° West 378 435 27,500 1,636 Climbing Boston Center
Fri 06:38:27 PM 43.0706 -75.0636 276° West 397 457 29,800 2,045 Climbing Boston Center
Fri 06:39:27 PM 43.0817 -75.2033 276° West 392 451 32,000 2,050 Climbing Boston Center
Fri 06:40:27 PM 43.0931 -75.3375 277° West 373 429 33,900 1,750 Climbing Boston Center
Fri 06:41:27 PM 43.1042 -75.4661 277° West 357 411 35,500 1,050 Climbing Boston Center
Fri 06:42:27 PM 43.1153 -75.5947 277° West 350 403 36,000 400 Climbing Boston Center
Fri 06:43:27 PM 43.1242 -75.7289 275° West 350 403 36,300 697 Climbing Boston Center
Fri 06:45:02 PM 43.1333 -75.9167 274° West 360 414 37,800 835 Climbing Toronto Center
Fri 06:45:22 PM 43.1417 -75.9761 281° West 357 411 37,900 75 Climbing Cleveland Center
Fri 06:46:22 PM 43.1533 -76.1119 277° West 362 417 37,900  Level Cleveland Center
Fri 06:47:22 PM 43.1606 -76.2481 274° West 362 417 37,900  Level Cleveland Center
Fri 06:48:22 PM 43.1614 -76.3817 271° West 362 417 37,900  Level Cleveland Center
Fri 06:49:22 PM 43.1619 -76.5183 270° West 362 417 37,900  Level Cleveland Center
Fri 06:50:22 PM 43.1603 -76.6494 269° West 362 417 37,900 50 Level Cleveland Center
Fri 06:51:22 PM 43.1592 -76.7978 269° West 362 417 38,000 50 Climbing Cleveland Center
Fri 06:52:22 PM 43.1592 -76.9314 270° West 362 417 38,000  Level Cleveland Center
Fri 06:53:22 PM 43.1572 -77.0711 269° West 368 423 38,000  Level Cleveland Center
Fri 06:54:22 PM 43.1569 -77.2047 270° West 368 423 38,000  Level Cleveland Center
Fri 06:55:22 PM 43.1567 -77.3386 270° West 368 423 38,000  Level Cleveland Center
Fri 06:56:22 PM 43.1542 -77.4783 269° West 368 423 38,000  Level Cleveland Center
Fri 06:57:22 PM 43.1539 -77.6178 270° West 368 423 38,000  Level Cleveland Center
Fri 06:58:22 PM 43.1531 -77.7544 270° West 368 423 38,000  Level Cleveland Center
Fri 06:59:22 PM 43.1497 -77.8797 268° West 368 423 38,000  Level Cleveland Center
Fri 07:00:22 PM 43.1486 -78.0164 269° West 368 423 38,000  Level Cleveland Center
Fri 07:01:22 PM 43.1475 -78.1561 269° West 368 423 38,000  Level Cleveland Center
Fri 07:02:22 PM 43.1442 -78.2956 268° West 368 423 38,000  Level Cleveland Center
Fri 07:03:22 PM 43.1406 -78.4350 268° West 368 423 38,000 -50 Level Cleveland Center
Fri 07:04:22 PM 43.1367 -78.5719 268° West 368 423 37,900 -50 Descending Cleveland Center
Fri 07:05:22 PM 43.1350 -78.7083 269° West 363 418 37,900 50 Level Cleveland Center
Fri 07:06:22 PM 43.1286 -78.8453 266° West 363 418 38,000 60 Climbing Cleveland Center
Fri 07:07:02 PM 43.1167 -78.9333 260° West 360 414 38,000  Level Toronto Center
Fri 07:08:02 PM 43.1167 -79.0667 270° West 360 414 38,000  Level Toronto Center
Fri 07:09:02 PM 43.1167 -79.2000 270° West 360 414 38,000  Level Toronto Center
Fri 07:10:02 PM 43.1000 -79.3333 260° West 360 414 38,000  Level Toronto Center
Fri 07:11:02 PM 43.1000 -79.4667 270° West 360 414 38,000  Level Toronto Center
Fri 07:12:02 PM 43.1000 -79.6167 270° West 360 414 38,000  Level Toronto Center
Fri 07:13:02 PM 43.0833 -79.7500 260° West 360 414 38,000  Level Toronto Center
Fri 07:14:02 PM 43.0833 -79.8833 270° West 360 414 38,000  Level Toronto Center
Fri 07:15:02 PM 43.0833 -80.0167 270° West 360 414 38,000  Level Toronto Center
Fri 07:16:02 PM 43.0667 -80.1500 260° West 360 414 38,000  Level Toronto Center
Fri 07:17:02 PM 43.0667 -80.3000 270° West 360 414 38,000  Level Toronto Center
Fri 07:18:02 PM 43.0667 -80.4500 270° West 360 414 38,000  Level Toronto Center
Fri 07:19:02 PM 43.0500 -80.5833 260° West 370 426 38,000  Level Toronto Center
Fri 07:20:02 PM 43.0500 -80.7333 270° West 360 414 38,000  Level Toronto Center
Fri 07:21:02 PM 43.0333 -80.8667 260° West 360 414 38,000  Level Toronto Center
Fri 07:22:02 PM 43.0333 -81.0000 270° West 370 426 38,000  Level Toronto Center
Fri 07:23:02 PM 43.0167 -81.1333 260° West 370 426 38,000  Level Toronto Center
Fri 07:24:02 PM 43.0167 -81.2667 270° West 370 426 38,000  Level Toronto Center
Fri 07:25:02 PM 43.0167 -81.4167 270° West 370 426 38,000  Level Toronto Center
Fri 07:26:02 PM 43.0167 -81.5667 270° West 370 426 38,000  Level Toronto Center
Fri 07:27:02 PM 43.0167 -81.7000 270° West 370 426 38,000  Level Toronto Center
Fri 07:28:02 PM 43.0167 -81.8500 270° West 370 426 38,000  Level Toronto Center
Fri 07:29:02 PM 43.0000 -81.9833 260° West 370 426 38,000  Level Toronto Center
Fri 07:30:02 PM 43.0000 -82.1167 270° West 380 437 38,000  Level Toronto Center
Fri 07:31:02 PM 43.0000 -82.2833 270° West 380 437 38,000  Level Toronto Center
Fri 07:32:02 PM 43.0000 -82.4167 270° West 380 437 38,000 -150 Level Toronto Center
Fri 07:33:02 PM 43.0000 -82.5667 270° West 390 449 37,700 -650 Descending Toronto Center
Fri 07:34:02 PM 42.9833 -82.7167 261° West 390 449 36,700 -1,125 Descending Toronto Center
Fri 07:34:22 PM 43.0000 -82.7719 292° West 388 447 36,200 -1,800 Descending Cleveland Center
Fri 07:35:22 PM 42.9950 -82.9164 267° West 388 447 34,300 -1,600 Descending Cleveland Center
Fri 07:36:22 PM 42.9900 -83.0667 267° West 383 441 33,000 -1,150 Descending Cleveland Center
Fri 07:37:22 PM 42.9844 -83.2169 267° West 388 447 32,000 -500 Descending Cleveland Center
Fri 07:38:22 PM 42.9789 -83.3728 267° West 399 459 32,000  Level Cleveland Center
Fri 07:39:22 PM 42.9728 -83.5258 267° West 405 466 32,000  Level Cleveland Center
Fri 07:40:22 PM 42.9689 -83.6789 268° West 405 466 32,000  Level Cleveland Center
Fri 07:41:22 PM 42.9567 -83.8172 263° West 405 466 32,000 -100 Level Cleveland Center
Fri 07:42:22 PM 42.9419 -83.9697 263° West 405 466 31,800 -400 Descending Cleveland Center
Fri 07:43:22 PM 42.9289 -84.1222 263° West 405 466 31,200 -750 Descending Cleveland Center
Fri 07:44:22 PM 42.9139 -84.2744 262° West 405 466 30,300 -1,200 Descending Cleveland Center
Fri 07:45:22 PM 42.8956 -84.4492 262° West 411 473 28,800 -1,168 Descending Cleveland Center
Fri 07:46:15 PM 42.8853 -84.5733 264° West 426 490 28,100 -417 Descending Chicago Center
Fri 07:47:17 PM 42.8694 -84.7300 262° West 420 483 28,000 -48 Descending Chicago Center
Fri 07:48:19 PM 42.8531 -84.8872 262° West 420 483 28,000  Level Chicago Center
Fri 07:49:21 PM 42.8328 -85.0750 262° West 419 482 28,000  Level Chicago Center
Fri 07:50:24 PM 42.8153 -85.2336 261° West 421 484 28,000 -48 Level Chicago Center
Fri 07:51:26 PM 42.7983 -85.3928 262° West 424 488 27,900 -532 Descending Chicago Center
Fri 07:52:28 PM 42.7781 -85.5475 260° West 418 481 26,900 -1,113 Descending Chicago Center
Fri 07:53:30 PM 42.7497 -85.7011 256° West 415 478 25,600 -1,306 Descending Chicago Center
Fri 07:54:32 PM 42.7233 -85.8508 257° West 408 470 24,200 -1,452 Descending Chicago Center
Fri 07:55:34 PM 42.6967 -85.9961 256° West 397 457 22,600 -1,887 Descending Chicago Center
Fri 07:56:36 PM 42.6664 -86.1650 256° West 383 441 20,300 -1,452 Descending Chicago Center
Fri 07:57:38 PM 42.6403 -86.3042 256° West 380 437 19,600 -871 Descending Chicago Center
Fri 07:58:40 PM 42.6139 -86.4394 255° West 373 429 18,500 -1,125 Descending Chicago Center
Fri 07:59:46 PM 42.5878 -86.5744 255° West 371 427 17,200 -1,266 Descending Chicago Center
Fri 08:00:48 PM 42.5642 -86.7119 257° West 372 428 15,800 -1,500 Descending Chicago Center
Fri 08:01:50 PM 42.5228 -86.8664 250° West 365 420 14,100 -1,500 Descending Chicago Center
Fri 08:02:52 PM 42.4883 -86.9953 250° West 366 421 12,700 -1,306 Descending Chicago Center
Fri 08:03:54 PM 42.4522 -87.1200 249° West 360 414 11,400 -1,258 Descending Chicago Center
Fri 08:04:56 PM 42.4169 -87.2478 250° West 362 417 10,100 -677 Descending Chicago Center
Fri 08:05:58 PM 42.3836 -87.3714 250° West 354 407 10,000 -48 Descending Chicago Center
Fri 08:07:00 PM 42.3478 -87.5028 250° West 352 405 10,000  Level Chicago Center
Fri 08:08:02 PM 42.2803 -87.5975 226° Southwest 361 415 10,000  Level Chicago Center
Fri 08:09:04 PM 42.1853 -87.6969 218° Southwest 361 415 10,000 -387 Level Chicago Center
Fri 08:10:06 PM 42.1214 -87.7736 222° Southwest 314 361 9,200 -1,103 Descending Chicago Center
Fri 08:11:20 PM 42.0833 -87.9000 248° West 284 327 7,500 -985 Descending Chicago TRACON
Fri 08:12:20 PM 42.0500 -87.9833 242° Southwest 246 283 7,000 -450 Descending Chicago TRACON
Fri 08:13:20 PM 42.0667 -88.0667 285° West 196 226 6,600 -737 Descending Chicago TRACON
Fri 08:14:14 PM 42.0600 -88.1294 262° West 203 234 5,600 -828 Descending Chicago Center
Fri 08:15:16 PM 42.0617 -88.2047 272° West 203 234 5,000 -290 Descending Chicago Center
Fri 08:16:18 PM 42.0500 -88.2736 257° West 211 243 5,000  Level Chicago Center
Fri 08:17:20 PM 41.9925 -88.2739 180° South 209 241 5,000 -145 Level Chicago Center
Fri 08:18:22 PM 41.9683 -88.2100 117° Southeast 198 228 4,700 -629 Descending Chicago Center
Fri 08:19:24 PM 41.9675 -88.1417 91° East 185 213 3,700 -968 Descending Chicago Center

Login

Don't have an account? Register now (free) for customized features, flight alerts, and more!